createdAt,value
2019-02-12T00:00:12.291Z,7.33
2019-02-12T00:02:41.352Z,6.97
2019-02-12T00:05:12.709Z,6.03
2019-02-12T00:07:41.903Z,5.97
2019-02-12T00:10:10.643Z,7.00
2019-02-12T00:12:39.279Z,5.43
2019-02-12T00:15:08.498Z,5.20
2019-02-12T00:17:38.710Z,5.77
2019-02-12T00:20:08.027Z,5.23
2019-02-12T00:22:36.777Z,4.77
2019-02-12T00:25:07.447Z,5.70
2019-02-12T00:27:36.013Z,4.87
2019-02-12T00:30:07.422Z,4.13
2019-02-12T00:32:36.118Z,4.17
2019-02-12T00:35:06.352Z,4.47
2019-02-12T00:37:34.991Z,4.23
2019-02-12T00:40:04.657Z,4.33
2019-02-12T00:42:33.190Z,4.27
2019-02-12T00:45:01.787Z,4.23
2019-02-12T00:47:30.355Z,4.00
2019-02-12T00:49:58.945Z,4.70
2019-02-12T00:52:27.575Z,3.87
2019-02-12T00:54:56.175Z,4.10
2019-02-12T00:57:24.794Z,4.73
2019-02-12T00:59:53.463Z,4.10
2019-02-12T01:02:22.030Z,4.00
2019-02-12T01:04:50.694Z,4.13
2019-02-12T01:07:19.262Z,4.40
2019-02-12T01:09:47.932Z,3.23
2019-02-12T01:12:16.563Z,3.73
2019-02-12T01:14:45.155Z,3.30
2019-02-12T01:17:17.086Z,3.27
2019-02-12T01:19:45.932Z,3.30
2019-02-12T01:22:14.556Z,3.63
2019-02-12T01:24:43.143Z,3.30
2019-02-12T01:27:11.734Z,4.00
2019-02-12T01:29:40.305Z,3.27
2019-02-12T01:32:08.861Z,3.70
2019-02-12T01:34:37.462Z,3.23
2019-02-12T01:37:06.164Z,3.43
2019-02-12T01:39:34.794Z,3.77
2019-02-12T01:42:03.401Z,3.23
2019-02-12T01:44:31.951Z,3.53
2019-02-12T01:47:00.616Z,3.43
2019-02-12T01:49:29.251Z,3.20
2019-02-12T01:51:57.854Z,3.17
2019-02-12T01:54:26.487Z,3.40
2019-02-12T01:56:55.076Z,3.73
2019-02-12T01:59:23.645Z,3.83
2019-02-12T02:01:52.386Z,3.80
2019-02-12T02:04:20.946Z,3.83
2019-02-12T02:06:49.551Z,3.30
2019-02-12T02:09:18.182Z,3.53
2019-02-12T02:11:46.885Z,3.57
2019-02-12T02:14:15.573Z,4.00
2019-02-12T02:16:44.152Z,4.00
2019-02-12T02:19:12.786Z,3.87
2019-02-12T02:21:44.046Z,3.70
2019-02-12T02:24:11.663Z,4.07
2019-02-12T02:26:40.212Z,3.43
2019-02-12T02:29:08.929Z,3.70
2019-02-12T02:31:37.552Z,3.50
2019-02-12T02:34:06.136Z,3.30
2019-02-12T02:36:34.693Z,3.57
2019-02-12T02:39:04.633Z,3.97
2019-02-12T02:41:33.184Z,3.80
2019-02-12T02:44:01.805Z,3.73
2019-02-12T02:46:30.389Z,3.60
2019-02-12T02:48:58.978Z,3.37
2019-02-12T02:51:29.832Z,3.40
2019-02-12T02:53:58.357Z,3.40
2019-02-12T02:56:27.005Z,3.67
2019-02-12T02:58:55.551Z,3.30
2019-02-12T03:01:24.141Z,3.23
2019-02-12T03:03:52.697Z,3.27
2019-02-12T03:06:21.329Z,3.43
2019-02-12T03:08:50.333Z,2.97
2019-02-12T03:11:18.925Z,3.00
2019-02-12T03:13:47.517Z,3.40
2019-02-12T03:16:16.129Z,3.20
2019-02-12T03:18:44.718Z,3.50
2019-02-12T03:21:13.271Z,3.50
2019-02-12T03:23:41.854Z,3.30
2019-02-12T03:26:10.485Z,2.87
2019-02-12T03:28:39.084Z,3.40
2019-02-12T03:31:07.629Z,3.47
2019-02-12T03:33:36.181Z,3.30
2019-02-12T03:36:04.829Z,3.37
2019-02-12T03:38:33.384Z,3.43
2019-02-12T03:41:02.038Z,3.47
2019-02-12T03:43:30.738Z,3.23
2019-02-12T03:45:59.290Z,3.30
2019-02-12T03:48:27.878Z,3.70
2019-02-12T03:50:56.501Z,3.50
2019-02-12T03:53:25.080Z,3.40
2019-02-12T03:55:53.778Z,3.33
2019-02-12T03:58:22.507Z,3.10
2019-02-12T04:00:51.202Z,2.93
2019-02-12T04:03:19.935Z,2.93
2019-02-12T04:05:49.738Z,3.03
2019-02-12T04:08:23.956Z,3.50
2019-02-12T04:11:03.763Z,2.63
2019-02-12T04:13:33.252Z,3.33
2019-02-12T04:16:12.565Z,3.33
2019-02-12T04:18:39.261Z,3.23
2019-02-12T04:21:07.970Z,2.73
2019-02-12T04:23:36.720Z,3.13
2019-02-12T04:26:05.281Z,3.33
2019-02-12T04:28:35.550Z,2.80
2019-02-12T04:31:04.296Z,2.90
2019-02-12T04:33:32.918Z,2.67
2019-02-12T04:36:01.646Z,3.57
2019-02-12T04:38:30.354Z,2.63
2019-02-12T04:40:58.974Z,2.90
2019-02-12T04:43:27.677Z,3.17
2019-02-12T04:45:56.429Z,3.00
2019-02-12T04:48:25.116Z,3.43
2019-02-12T04:50:53.849Z,3.10
2019-02-12T04:53:22.576Z,3.13
2019-02-12T04:55:51.291Z,4.60
2019-02-12T04:58:19.963Z,3.03
2019-02-12T05:00:48.665Z,3.60
2019-02-12T05:03:17.254Z,3.10
2019-02-12T05:05:45.976Z,2.80
2019-02-12T05:08:14.706Z,3.03
2019-02-12T05:10:49.275Z,2.97
2019-02-12T05:13:17.934Z,2.90
2019-02-12T05:15:46.749Z,3.30
2019-02-12T05:18:15.464Z,3.47
2019-02-12T05:20:44.182Z,3.57
2019-02-12T05:23:12.932Z,3.63
2019-02-12T05:25:41.635Z,3.27
2019-02-12T05:28:10.401Z,3.73
2019-02-12T05:30:39.125Z,3.93
2019-02-12T05:33:07.851Z,4.30
2019-02-12T05:35:36.559Z,4.10
2019-02-12T05:38:05.270Z,3.83
2019-02-12T05:40:34.004Z,4.03
2019-02-12T05:43:02.718Z,4.03
2019-02-12T05:45:31.451Z,4.03
2019-02-12T05:48:00.166Z,4.20
2019-02-12T05:50:28.909Z,3.77
2019-02-12T05:52:57.610Z,4.27
2019-02-12T05:55:26.268Z,4.17
2019-02-12T05:57:54.985Z,3.83
2019-02-12T06:00:25.338Z,4.53
2019-02-12T06:02:54.081Z,4.07
2019-02-12T06:05:30.051Z,4.23
2019-02-12T06:07:58.762Z,4.43
2019-02-12T06:10:27.505Z,4.17
2019-02-12T06:12:56.214Z,4.37
2019-02-12T06:15:24.924Z,4.33
2019-02-12T06:17:53.675Z,4.60
2019-02-12T06:20:22.378Z,4.37
2019-02-12T06:22:51.182Z,4.30
2019-02-12T06:25:19.743Z,4.43
2019-02-12T06:27:48.390Z,4.30
2019-02-12T06:30:17.053Z,4.20
2019-02-12T06:32:45.802Z,5.37
2019-02-12T06:35:14.356Z,4.93
2019-02-12T06:37:43.105Z,5.10
2019-02-12T06:40:12.214Z,4.53
2019-02-12T06:42:40.884Z,4.00
2019-02-12T06:45:13.854Z,4.50
2019-02-12T06:47:42.581Z,4.83
2019-02-12T06:50:12.431Z,3.70
2019-02-12T06:52:41.104Z,4.00
2019-02-12T06:55:11.109Z,3.93
2019-02-12T06:57:39.881Z,3.90
2019-02-12T07:00:13.693Z,4.10
2019-02-12T07:03:01.785Z,4.30
2019-02-12T07:05:30.456Z,4.07
2019-02-12T07:08:21.984Z,3.87
2019-02-12T07:10:53.667Z,4.40
2019-02-12T07:13:34.354Z,3.70
2019-02-12T07:16:06.028Z,4.63
2019-02-12T07:18:37.669Z,4.30
2019-02-12T07:21:11.998Z,4.77
2019-02-12T07:24:04.397Z,4.33
2019-02-12T07:27:00.249Z,4.00
2019-02-12T07:29:51.266Z,4.07
2019-02-12T07:32:25.589Z,3.97
2019-02-12T07:35:06.088Z,4.00
2019-02-12T07:37:40.533Z,4.27
2019-02-12T07:40:33.179Z,3.97
2019-02-12T07:43:20.469Z,4.10
2019-02-12T07:45:54.906Z,4.00
2019-02-12T07:48:29.163Z,3.83
2019-02-12T07:51:25.216Z,4.60
2019-02-12T07:53:59.794Z,5.33
2019-02-12T07:56:53.997Z,5.33
2019-02-12T07:59:37.546Z,5.40
2019-02-12T08:02:14.442Z,4.83
2019-02-12T08:05:11.927Z,5.47
2019-02-12T08:07:58.182Z,5.33
2019-02-12T08:10:51.183Z,4.53
2019-02-12T08:13:39.103Z,4.67
2019-02-12T08:16:25.833Z,4.40
2019-02-12T08:19:06.219Z,5.27
2019-02-12T08:21:40.568Z,4.73
2019-02-12T08:24:24.238Z,5.23
2019-02-12T08:26:58.769Z,4.37
2019-02-12T08:29:35.666Z,5.00
2019-02-12T08:32:19.234Z,4.40
2019-02-12T08:34:59.941Z,3.90
2019-02-12T08:37:47.966Z,4.83
2019-02-12T08:40:25.334Z,4.27
2019-02-12T08:42:56.973Z,4.20
2019-02-12T08:45:46.409Z,3.93
2019-02-12T08:48:20.488Z,3.90
2019-02-12T08:51:04.203Z,3.93
2019-02-12T08:53:50.540Z,3.80
2019-02-12T08:56:29.814Z,4.10
2019-02-12T08:59:13.233Z,3.70
2019-02-12T09:01:50.580Z,4.20
2019-02-12T09:04:28.377Z,3.80
2019-02-12T09:07:12.121Z,3.73
2019-02-12T09:10:16.970Z,3.80
2019-02-12T09:13:06.633Z,3.80
2019-02-12T09:15:50.325Z,3.10
2019-02-12T09:18:24.466Z,3.73
2019-02-12T09:21:01.833Z,4.00
2019-02-12T09:24:00.589Z,3.90
2019-02-12T09:26:33.734Z,3.43
2019-02-12T09:29:17.426Z,4.20
2019-02-12T09:31:57.882Z,3.47
2019-02-12T09:34:35.556Z,3.80
2019-02-12T09:37:28.205Z,3.33
2019-02-12T09:40:22.070Z,3.50
2019-02-12T09:43:19.482Z,3.50
2019-02-12T09:46:00.106Z,3.00
2019-02-12T09:48:37.638Z,3.43
2019-02-12T09:51:17.899Z,3.20
2019-02-12T09:54:08.850Z,3.47
2019-02-12T09:57:04.533Z,3.57
2019-02-12T09:59:51.243Z,3.67
2019-02-12T10:02:48.602Z,3.40
2019-02-12T10:05:26.828Z,3.27
2019-02-12T10:08:25.764Z,3.03
2019-02-12T10:11:06.121Z,3.73
2019-02-12T10:13:46.703Z,4.30
2019-02-12T10:16:27.438Z,3.57
2019-02-12T10:19:07.926Z,3.47
2019-02-12T10:22:00.639Z,3.57
2019-02-12T10:24:38.205Z,3.33
2019-02-12T10:27:21.648Z,3.33
2019-02-12T10:29:53.316Z,2.93
2019-02-12T10:32:20.801Z,2.93
2019-02-12T10:34:49.373Z,3.30
2019-02-12T10:37:17.933Z,3.27
2019-02-12T10:39:46.712Z,3.20
2019-02-12T10:42:15.286Z,3.17
2019-02-12T10:44:44.028Z,3.67
2019-02-12T10:47:12.622Z,2.63
2019-02-12T10:49:41.327Z,2.90
2019-02-12T10:52:09.911Z,2.43
2019-02-12T10:54:38.482Z,2.50
2019-02-12T10:57:07.234Z,2.93
2019-02-12T10:59:35.791Z,2.97
2019-02-12T11:02:04.515Z,3.30
2019-02-12T11:04:33.218Z,2.90
2019-02-12T11:07:01.774Z,2.60
2019-02-12T11:09:30.444Z,2.77
2019-02-12T11:11:59.187Z,2.63
2019-02-12T11:14:27.987Z,2.30
2019-02-12T11:16:56.615Z,2.90
2019-02-12T11:19:25.273Z,2.60
2019-02-12T11:21:53.913Z,2.50
2019-02-12T11:24:22.591Z,2.50
2019-02-12T11:26:51.319Z,2.73
2019-02-12T11:29:19.949Z,2.73
2019-02-12T11:31:48.627Z,2.40
2019-02-12T11:34:17.255Z,2.70
2019-02-12T11:36:45.934Z,2.30
2019-02-12T11:39:14.642Z,2.60
2019-02-12T11:41:46.465Z,3.27
2019-02-12T11:44:19.002Z,2.93
2019-02-12T11:46:47.843Z,3.07
2019-02-12T11:49:16.468Z,2.60
2019-02-12T11:51:45.143Z,3.03
2019-02-12T11:54:13.783Z,2.73
2019-02-12T11:56:44.067Z,2.50
2019-02-12T11:59:13.207Z,2.50
2019-02-12T12:01:42.019Z,3.00
2019-02-12T12:04:10.689Z,2.70
2019-02-12T12:06:39.687Z,2.73
2019-02-12T12:09:08.905Z,2.60
2019-02-12T12:11:38.069Z,2.50
2019-02-12T12:14:07.561Z,2.33
2019-02-12T12:16:37.006Z,2.77
2019-02-12T12:19:06.221Z,2.87
2019-02-12T12:21:35.723Z,2.93
2019-02-12T12:24:05.325Z,2.60
2019-02-12T12:26:34.956Z,2.60
2019-02-12T12:29:04.463Z,3.10
2019-02-12T12:31:33.938Z,2.70
2019-02-12T12:34:03.493Z,3.00
2019-02-12T12:36:32.319Z,2.90
2019-02-12T12:39:01.020Z,2.70
2019-02-12T12:41:29.683Z,3.33
2019-02-12T12:43:58.305Z,3.23
2019-02-12T12:46:26.930Z,3.43
2019-02-12T12:48:55.573Z,2.97
2019-02-12T12:51:24.746Z,3.87
2019-02-12T12:53:54.053Z,3.10
2019-02-12T12:56:23.613Z,2.90
2019-02-12T12:58:52.698Z,3.07
2019-02-12T13:01:22.121Z,3.10
2019-02-12T13:03:51.053Z,2.60
2019-02-12T13:06:19.916Z,3.20
2019-02-12T13:08:48.829Z,3.47
2019-02-12T13:11:17.636Z,3.60
2019-02-12T13:13:47.915Z,3.97
2019-02-12T13:16:16.928Z,3.47
2019-02-12T13:18:45.657Z,12.67
2019-02-12T13:21:14.596Z,6.30
2019-02-12T13:23:43.818Z,4.23
2019-02-12T13:26:12.492Z,5.87
2019-02-12T13:28:41.060Z,4.50
2019-02-12T13:31:09.785Z,4.43
2019-02-12T13:33:38.354Z,3.63
2019-02-12T13:36:07.013Z,4.97
2019-02-12T13:38:35.645Z,6.73
2019-02-12T13:41:04.314Z,6.03
2019-02-12T13:43:32.970Z,5.80
2019-02-12T13:46:01.525Z,5.23
2019-02-12T13:48:30.121Z,5.30
2019-02-12T13:50:58.745Z,4.70
2019-02-12T13:53:27.293Z,4.83
2019-02-12T13:55:55.876Z,7.40
2019-02-12T13:58:24.532Z,5.10
2019-02-12T14:00:54.986Z,5.07
2019-02-12T14:03:23.472Z,4.67
2019-02-12T14:05:52.499Z,4.67
2019-02-12T14:08:21.048Z,4.43
2019-02-12T14:10:49.601Z,4.60
2019-02-12T14:13:18.518Z,4.40
2019-02-12T14:15:47.150Z,4.80
2019-02-12T14:18:16.176Z,5.07
2019-02-12T14:20:44.881Z,5.00
2019-02-12T14:23:13.653Z,4.20
2019-02-12T14:25:42.452Z,4.37
2019-02-12T14:28:10.964Z,4.27
2019-02-12T14:30:39.698Z,4.10
2019-02-12T14:33:08.249Z,4.40
2019-02-12T14:35:44.543Z,4.60
2019-02-12T14:38:13.146Z,4.40
2019-02-12T14:40:41.785Z,4.00
2019-02-12T14:43:14.234Z,3.93
2019-02-12T14:45:41.883Z,3.83
2019-02-12T14:48:10.460Z,3.47
2019-02-12T14:50:39.092Z,3.90
2019-02-12T14:53:07.742Z,4.07
2019-02-12T14:55:36.429Z,4.00
2019-02-12T14:58:05.010Z,3.87
2019-02-12T15:00:35.376Z,3.73
2019-02-12T15:03:04.395Z,4.50
2019-02-12T15:05:33.230Z,4.00
2019-02-12T15:08:02.101Z,3.83
2019-02-12T15:10:31.116Z,4.80
2019-02-12T15:12:59.941Z,3.63
2019-02-12T15:15:28.772Z,5.07
2019-02-12T15:17:57.672Z,3.60
2019-02-12T15:20:26.453Z,3.60
2019-02-12T15:22:55.282Z,3.17
2019-02-12T15:25:24.711Z,4.07
2019-02-12T15:27:53.526Z,2.80
2019-02-12T15:30:22.365Z,4.07
2019-02-12T15:32:51.507Z,4.10
2019-02-12T15:35:21.111Z,4.20
2019-02-12T15:37:49.932Z,3.87
2019-02-12T15:40:20.464Z,3.73
2019-02-12T15:42:49.330Z,3.60
2019-02-12T15:45:22.429Z,3.43
2019-02-12T15:47:52.669Z,6.23
2019-02-12T15:50:21.524Z,2.87
2019-02-12T15:52:50.362Z,2.77
2019-02-12T15:55:20.003Z,3.03
2019-02-12T15:57:48.858Z,3.20
2019-02-12T16:00:20.651Z,3.57
2019-02-12T16:02:49.203Z,3.20
2019-02-12T16:05:18.941Z,3.87
2019-02-12T16:07:47.861Z,3.27
2019-02-12T16:10:21.184Z,3.33
2019-02-12T16:12:51.612Z,3.27
2019-02-12T16:15:24.661Z,3.13
2019-02-12T16:17:53.862Z,3.00
2019-02-12T16:20:22.727Z,3.37
2019-02-12T16:22:51.358Z,3.10
2019-02-12T16:25:19.957Z,2.83
2019-02-12T16:27:48.594Z,3.50
2019-02-12T16:30:21.736Z,3.20
2019-02-12T16:32:50.351Z,3.27
2019-02-12T16:35:19.149Z,3.30
2019-02-12T16:37:47.816Z,3.60
2019-02-12T16:40:19.313Z,3.70
2019-02-12T16:42:47.908Z,3.20
2019-02-12T16:45:42.254Z,3.73
2019-02-12T16:48:30.282Z,3.80
2019-02-12T16:50:58.927Z,4.33
2019-02-12T16:53:27.840Z,3.53
2019-02-12T16:55:56.863Z,4.07
2019-02-12T16:58:25.598Z,4.03
2019-02-12T17:00:54.250Z,4.23
2019-02-12T17:03:22.855Z,3.77
2019-02-12T17:05:51.517Z,3.90
2019-02-12T17:08:20.227Z,4.30
2019-02-12T17:10:49.008Z,4.60
2019-02-12T17:13:17.902Z,4.77
2019-02-12T17:15:46.468Z,4.07
2019-02-12T17:18:15.333Z,4.13
2019-02-12T17:20:44.419Z,4.57
2019-02-12T17:23:13.088Z,4.00
2019-02-12T17:25:41.664Z,3.60
2019-02-12T17:28:10.544Z,4.03
2019-02-12T17:30:44.303Z,3.70
2019-02-12T17:33:14.148Z,4.27
2019-02-12T17:35:46.089Z,4.30
2019-02-12T17:38:14.708Z,4.03
2019-02-12T17:40:44.487Z,4.80
2019-02-12T17:43:13.246Z,3.53
2019-02-12T17:45:41.934Z,5.67
2019-02-12T17:48:10.636Z,5.10
2019-02-12T17:50:39.388Z,4.60
2019-02-12T17:53:08.138Z,4.13
2019-02-12T17:55:36.735Z,4.43
2019-02-12T17:58:05.523Z,4.03
2019-02-12T18:00:39.036Z,3.87
2019-02-12T18:03:07.918Z,4.33
2019-02-12T18:05:36.461Z,3.83
2019-02-12T18:08:05.202Z,5.93
2019-02-12T18:10:33.806Z,6.67
2019-02-12T18:13:02.467Z,4.83
2019-02-12T18:15:31.031Z,5.40
2019-02-12T18:17:59.629Z,5.53
2019-02-12T18:20:28.194Z,4.20
2019-02-12T18:22:56.846Z,7.70
2019-02-12T18:25:25.407Z,4.73
2019-02-12T18:27:53.975Z,7.43
2019-02-12T18:30:22.644Z,5.70
2019-02-12T18:32:51.442Z,5.93
2019-02-12T18:35:20.107Z,6.30
2019-02-12T18:37:48.752Z,5.40
2019-02-12T18:40:18.968Z,5.87
2019-02-12T18:42:47.837Z,5.43
2019-02-12T18:45:26.629Z,5.40
2019-02-12T18:47:56.905Z,4.87
2019-02-12T18:50:25.638Z,4.60
2019-02-12T18:52:56.106Z,4.50
2019-02-12T18:55:25.018Z,4.07
2019-02-12T18:57:54.061Z,4.43
2019-02-12T19:00:23.668Z,3.87
2019-02-12T19:02:52.467Z,4.00
2019-02-12T19:05:21.171Z,3.77
2019-02-12T19:07:49.848Z,3.30
2019-02-12T19:10:22.837Z,4.60
2019-02-12T19:12:53.756Z,4.90
2019-02-12T19:15:23.494Z,4.73
2019-02-12T19:18:03.959Z,4.57
2019-02-12T19:20:32.711Z,4.87
2019-02-12T19:23:02.082Z,4.30
2019-02-12T19:25:30.910Z,4.47
2019-02-12T19:27:59.766Z,4.80
2019-02-12T19:30:49.429Z,4.63
2019-02-12T19:33:18.950Z,4.50
2019-02-12T19:35:47.494Z,4.23
2019-02-12T19:38:16.314Z,3.47
2019-02-12T19:40:45.190Z,4.00
2019-02-12T19:43:15.491Z,3.70
2019-02-12T19:45:44.530Z,4.13
2019-02-12T19:48:13.565Z,5.20
2019-02-12T19:50:42.305Z,5.20
2019-02-12T19:53:11.027Z,3.63
2019-02-12T19:55:39.790Z,4.03
2019-02-12T19:58:08.380Z,3.63
2019-02-12T20:00:37.221Z,2.90
2019-02-12T20:03:06.093Z,3.73
2019-02-12T20:05:34.845Z,3.20
2019-02-12T20:08:03.471Z,2.93
2019-02-12T20:10:32.297Z,4.33
2019-02-12T20:13:00.845Z,4.07
2019-02-12T20:15:29.429Z,3.60
2019-02-12T20:17:58.307Z,3.23
2019-02-12T20:20:27.212Z,4.13
2019-02-12T20:22:56.128Z,4.13
2019-02-12T20:25:24.870Z,5.53
2019-02-12T20:27:53.739Z,6.07
2019-02-12T20:30:22.545Z,5.67
2019-02-12T20:32:51.528Z,5.40
2019-02-12T20:35:22.063Z,5.77
2019-02-12T20:37:51.161Z,4.77
2019-02-12T20:40:20.177Z,5.03
2019-02-12T20:42:48.909Z,4.87
2019-02-12T20:45:20.786Z,3.87
2019-02-12T20:47:49.676Z,4.57
2019-02-12T20:50:22.024Z,4.67
2019-02-12T20:52:50.754Z,3.93
2019-02-12T20:55:38.440Z,4.67
2019-02-12T20:58:07.282Z,3.33
2019-02-12T21:00:35.896Z,3.20
2019-02-12T21:03:06.023Z,2.60
2019-02-12T21:05:34.815Z,2.80
2019-02-12T21:08:03.767Z,3.33
2019-02-12T21:10:32.650Z,4.10
2019-02-12T21:13:02.609Z,4.90
2019-02-12T21:15:32.402Z,5.00
2019-02-12T21:18:01.580Z,4.33
2019-02-12T21:20:30.518Z,3.80
2019-02-12T21:23:01.048Z,3.20
2019-02-12T21:25:29.784Z,3.37
2019-02-12T21:28:00.282Z,3.10
2019-02-12T21:30:33.807Z,3.90
2019-02-12T21:33:02.647Z,3.20
2019-02-12T21:35:31.424Z,3.50
2019-02-12T21:38:00.645Z,3.40
2019-02-12T21:40:48.568Z,4.03
2019-02-12T21:43:17.230Z,2.97
2019-02-12T21:45:45.900Z,2.80
2019-02-12T21:48:14.640Z,2.90
2019-02-12T21:50:43.222Z,2.93
2019-02-12T21:53:11.917Z,2.40
2019-02-12T21:55:40.672Z,2.10
2019-02-12T21:58:09.799Z,2.37
2019-02-12T22:00:38.794Z,2.90
2019-02-12T22:03:07.540Z,2.70
2019-02-12T22:05:36.454Z,2.73
2019-02-12T22:08:05.778Z,2.77
2019-02-12T22:10:34.423Z,2.83
2019-02-12T22:13:03.078Z,2.90
2019-02-12T22:15:31.789Z,3.37
2019-02-12T22:18:00.539Z,3.53
2019-02-12T22:20:29.474Z,3.47
2019-02-12T22:22:58.171Z,3.83
2019-02-12T22:25:27.254Z,3.57
2019-02-12T22:27:56.383Z,3.33
2019-02-12T22:30:26.985Z,3.47
2019-02-12T22:32:55.695Z,3.67
2019-02-12T22:35:24.647Z,2.87
2019-02-12T22:37:53.747Z,3.17
2019-02-12T22:40:22.935Z,2.80
2019-02-12T22:42:51.681Z,2.87
2019-02-12T22:45:21.690Z,2.90
2019-02-12T22:47:50.349Z,2.83
2019-02-12T22:50:19.144Z,2.70
2019-02-12T22:52:48.023Z,3.20
2019-02-12T22:55:16.883Z,3.60
2019-02-12T22:57:49.432Z,3.37
2019-02-12T23:00:50.676Z,3.93
2019-02-12T23:03:20.244Z,4.30
2019-02-12T23:05:49.113Z,4.27
2019-02-12T23:08:17.765Z,3.33
2019-02-12T23:10:46.975Z,3.50
2019-02-12T23:13:15.741Z,3.30
2019-02-12T23:15:44.586Z,2.93
2019-02-12T23:18:13.909Z,3.43
2019-02-12T23:20:42.924Z,3.20
2019-02-12T23:23:11.513Z,3.47
2019-02-12T23:25:40.204Z,3.70
2019-02-12T23:28:09.422Z,4.30
2019-02-12T23:30:38.565Z,4.83
2019-02-12T23:33:07.190Z,3.87
2019-02-12T23:35:35.831Z,4.13
2019-02-12T23:38:04.484Z,4.10
2019-02-12T23:40:33.112Z,3.93
2019-02-12T23:43:01.767Z,3.43
2019-02-12T23:45:30.385Z,2.90
2019-02-12T23:47:58.974Z,3.27
2019-02-12T23:50:27.535Z,3.50
2019-02-12T23:52:56.113Z,3.53
2019-02-12T23:55:25.605Z,3.23
2019-02-12T23:57:54.240Z,3.30
